createdAt,value
2018-01-08T00:00:04.913Z,992.29
2018-01-08T00:01:11.765Z,992.30
2018-01-08T00:02:18.473Z,992.32
2018-01-08T00:03:25.215Z,992.28
2018-01-08T00:04:31.987Z,992.28
2018-01-08T00:05:38.776Z,992.41
2018-01-08T00:06:45.639Z,992.27
2018-01-08T00:07:52.343Z,992.29
2018-01-08T00:08:59.076Z,992.30
2018-01-08T00:10:05.832Z,992.26
2018-01-08T00:11:12.681Z,992.20
2018-01-08T00:12:19.412Z,992.20
2018-01-08T00:13:26.139Z,992.20
2018-01-08T00:14:32.885Z,992.14
2018-01-08T00:15:39.668Z,992.26
2018-01-08T00:16:46.369Z,992.31
2018-01-08T00:17:53.092Z,992.15
2018-01-08T00:18:59.831Z,992.26
2018-01-08T00:20:06.617Z,992.26
2018-01-08T00:21:13.335Z,992.13
2018-01-08T00:22:20.076Z,992.21
2018-01-08T00:23:26.829Z,992.17
2018-01-08T00:24:33.582Z,992.19
2018-01-08T00:25:40.420Z,992.18
2018-01-08T00:26:47.178Z,992.19
2018-01-08T00:27:53.954Z,992.20
2018-01-08T00:29:00.693Z,992.20
2018-01-08T00:30:07.559Z,992.09
2018-01-08T00:31:14.339Z,992.13
2018-01-08T00:32:21.119Z,992.15
2018-01-08T00:33:27.897Z,992.21
2018-01-08T00:34:34.660Z,992.15
2018-01-08T00:35:41.561Z,992.20
2018-01-08T00:36:48.311Z,992.12
2018-01-08T00:37:55.116Z,992.16
2018-01-08T00:39:01.904Z,992.17
2018-01-08T00:40:08.865Z,992.19
2018-01-08T00:41:15.654Z,992.09
2018-01-08T00:42:22.494Z,992.19
2018-01-08T00:43:29.251Z,992.13
2018-01-08T00:44:36.011Z,992.15
2018-01-08T00:45:42.751Z,992.12
2018-01-08T00:46:49.565Z,992.07
2018-01-08T00:47:56.344Z,992.00
2018-01-08T00:49:03.093Z,992.15
2018-01-08T00:50:09.975Z,992.07
2018-01-08T00:51:16.761Z,992.06
2018-01-08T00:52:23.505Z,991.98
2018-01-08T00:53:30.278Z,992.04
2018-01-08T00:54:37.024Z,992.02
2018-01-08T00:55:43.774Z,991.94
2018-01-08T00:56:50.564Z,992.04
2018-01-08T00:57:57.530Z,991.99
2018-01-08T00:59:04.273Z,991.94
2018-01-08T01:00:11.020Z,991.98
2018-01-08T01:01:17.835Z,992.08
2018-01-08T01:02:24.580Z,992.04
2018-01-08T01:03:31.320Z,991.95
2018-01-08T01:04:38.071Z,991.98
2018-01-08T01:05:44.884Z,991.97
2018-01-08T01:06:51.670Z,991.91
2018-01-08T01:07:58.486Z,991.99
2018-01-08T01:09:05.303Z,991.91
2018-01-08T01:10:12.037Z,991.84
2018-01-08T01:11:18.790Z,991.81
2018-01-08T01:12:25.561Z,991.89
2018-01-08T01:13:32.331Z,991.87
2018-01-08T01:14:39.044Z,991.91
2018-01-08T01:15:45.815Z,991.82
2018-01-08T01:16:52.553Z,991.91
2018-01-08T01:17:59.393Z,991.89
2018-01-08T01:19:06.144Z,991.91
2018-01-08T01:20:12.845Z,991.84
2018-01-08T01:21:19.576Z,991.92
2018-01-08T01:22:26.272Z,991.96
2018-01-08T01:23:33.060Z,991.96
2018-01-08T01:24:39.737Z,992.03
2018-01-08T01:25:46.428Z,991.98
2018-01-08T01:26:53.159Z,991.92
2018-01-08T01:27:59.944Z,992.00
2018-01-08T01:29:06.773Z,992.01
2018-01-08T01:30:13.612Z,992.07
2018-01-08T01:31:20.293Z,992.10
2018-01-08T01:32:26.995Z,992.03
2018-01-08T01:33:33.702Z,992.14
2018-01-08T01:34:40.442Z,992.04
2018-01-08T01:35:47.121Z,992.04
2018-01-08T01:36:53.836Z,992.04
2018-01-08T01:38:00.576Z,991.99
2018-01-08T01:39:07.284Z,992.02
2018-01-08T01:40:13.988Z,992.04
2018-01-08T01:41:20.760Z,992.06
2018-01-08T01:42:27.457Z,992.11
2018-01-08T01:43:34.208Z,992.10
2018-01-08T01:44:40.888Z,991.99
2018-01-08T01:45:47.580Z,992.09
2018-01-08T01:46:54.273Z,992.13
2018-01-08T01:48:01.109Z,992.03
2018-01-08T01:49:07.953Z,992.07
2018-01-08T01:50:14.784Z,992.04
2018-01-08T01:51:21.472Z,992.07
2018-01-08T01:52:28.297Z,992.08
2018-01-08T01:53:35.000Z,992.13
2018-01-08T01:54:41.803Z,992.12
2018-01-08T01:55:48.463Z,992.20
2018-01-08T01:56:55.148Z,992.18
2018-01-08T01:58:01.865Z,992.23
2018-01-08T01:59:08.559Z,992.16
2018-01-08T02:00:15.381Z,992.24
2018-01-08T02:01:22.109Z,992.30
2018-01-08T02:02:28.792Z,992.42
2018-01-08T02:03:35.480Z,992.36
2018-01-08T02:04:42.176Z,992.39
2018-01-08T02:05:48.888Z,992.28
2018-01-08T02:06:55.599Z,992.40
2018-01-08T02:08:02.284Z,992.42
2018-01-08T02:09:09.093Z,992.41
2018-01-08T02:10:15.811Z,992.39
2018-01-08T02:11:22.536Z,992.38
2018-01-08T02:12:29.243Z,992.34
2018-01-08T02:13:35.956Z,992.31
2018-01-08T02:14:42.655Z,992.36
2018-01-08T02:15:49.464Z,992.38
2018-01-08T02:16:56.161Z,992.39
2018-01-08T02:18:02.859Z,992.39
2018-01-08T02:19:09.572Z,992.49
2018-01-08T02:20:16.389Z,992.43
2018-01-08T02:21:23.172Z,992.41
2018-01-08T02:22:29.861Z,992.47
2018-01-08T02:23:36.556Z,992.38
2018-01-08T02:24:43.276Z,992.45
2018-01-08T02:25:50.009Z,992.45
2018-01-08T02:26:56.783Z,992.41
2018-01-08T02:28:03.754Z,992.37
2018-01-08T02:29:10.500Z,992.37
2018-01-08T02:30:17.265Z,992.35
2018-01-08T02:31:24.021Z,992.40
2018-01-08T02:32:30.720Z,992.34
2018-01-08T02:33:37.428Z,992.42
2018-01-08T02:34:44.138Z,992.36
2018-01-08T02:35:50.861Z,992.34
2018-01-08T02:36:57.652Z,992.39
2018-01-08T02:38:04.365Z,992.44
2018-01-08T02:39:11.086Z,992.46
2018-01-08T02:40:17.863Z,992.33
2018-01-08T02:41:24.544Z,992.33
2018-01-08T02:42:31.356Z,992.35
2018-01-08T02:43:38.048Z,992.37
2018-01-08T02:44:44.768Z,992.30
2018-01-08T02:45:51.475Z,992.43
2018-01-08T02:46:58.232Z,992.28
2018-01-08T02:48:04.928Z,992.33
2018-01-08T02:49:11.716Z,992.31
2018-01-08T02:50:18.413Z,992.31
2018-01-08T02:51:25.107Z,992.40
2018-01-08T02:52:31.859Z,992.40
2018-01-08T02:53:38.560Z,992.39
2018-01-08T02:54:45.269Z,992.49
2018-01-08T02:55:52.065Z,992.39
2018-01-08T02:56:58.756Z,992.30
2018-01-08T02:58:05.500Z,992.34
2018-01-08T02:59:12.204Z,992.32
2018-01-08T03:00:19.016Z,992.28
2018-01-08T03:01:25.788Z,992.30
2018-01-08T03:02:32.477Z,992.32
2018-01-08T03:03:39.211Z,992.29
2018-01-08T03:04:45.960Z,992.34
2018-01-08T03:05:52.704Z,992.37
2018-01-08T03:06:59.488Z,992.29
2018-01-08T03:08:06.259Z,992.36
2018-01-08T03:09:13.001Z,992.37
2018-01-08T03:10:19.698Z,992.34
2018-01-08T03:11:26.380Z,992.36
2018-01-08T03:12:33.197Z,992.37
2018-01-08T03:13:39.898Z,992.35
2018-01-08T03:14:46.614Z,992.39
2018-01-08T03:15:53.330Z,992.42
2018-01-08T03:17:00.057Z,992.39
2018-01-08T03:18:06.848Z,992.41
2018-01-08T03:19:13.578Z,992.28
2018-01-08T03:20:20.357Z,992.36
2018-01-08T03:21:27.085Z,992.30
2018-01-08T03:22:33.936Z,992.27
2018-01-08T03:23:40.681Z,992.24
2018-01-08T03:24:47.422Z,992.24
2018-01-08T03:25:54.188Z,992.21
2018-01-08T03:27:00.917Z,992.25
2018-01-08T03:28:07.769Z,992.29
2018-01-08T03:29:14.573Z,992.30
2018-01-08T03:30:21.322Z,992.23
2018-01-08T03:31:28.089Z,992.25
2018-01-08T03:32:34.869Z,992.27
2018-01-08T03:33:41.704Z,992.25
2018-01-08T03:34:48.519Z,992.30
2018-01-08T03:35:55.276Z,992.31
2018-01-08T03:37:02.013Z,992.30
2018-01-08T03:38:08.753Z,992.34
2018-01-08T03:39:15.593Z,992.32
2018-01-08T03:40:22.356Z,992.31
2018-01-08T03:41:29.128Z,992.24
2018-01-08T03:42:36.000Z,992.18
2018-01-08T03:43:42.733Z,992.23
2018-01-08T03:44:49.508Z,992.22
2018-01-08T03:45:56.256Z,992.33
2018-01-08T03:47:03.069Z,992.32
2018-01-08T03:48:09.916Z,992.32
2018-01-08T03:49:16.652Z,992.24
2018-01-08T03:50:23.499Z,992.27
2018-01-08T03:51:30.232Z,992.24
2018-01-08T03:52:37.088Z,992.25
2018-01-08T03:53:43.904Z,992.27
2018-01-08T03:54:50.639Z,992.32
2018-01-08T03:55:57.393Z,992.29
2018-01-08T03:57:04.125Z,992.27
2018-01-08T03:58:10.864Z,992.22
2018-01-08T03:59:17.625Z,992.28
2018-01-08T04:00:24.382Z,992.24
2018-01-08T04:01:31.156Z,992.25
2018-01-08T04:02:38.040Z,992.30
2018-01-08T04:03:44.769Z,992.34
2018-01-08T04:04:51.532Z,992.23
2018-01-08T04:05:58.284Z,992.22
2018-01-08T04:07:05.105Z,992.32
2018-01-08T04:08:11.831Z,992.34
2018-01-08T04:09:18.587Z,992.33
2018-01-08T04:10:25.362Z,992.28
2018-01-08T04:11:32.132Z,992.26
2018-01-08T04:12:38.864Z,992.32
2018-01-08T04:13:45.603Z,992.30
2018-01-08T04:14:52.352Z,992.17
2018-01-08T04:15:59.225Z,992.19
2018-01-08T04:17:06.083Z,992.14
2018-01-08T04:18:12.808Z,992.13
2018-01-08T04:19:19.611Z,992.14
2018-01-08T04:20:26.384Z,992.18
2018-01-08T04:21:33.169Z,992.15
2018-01-08T04:22:40.021Z,992.13
2018-01-08T04:23:46.781Z,992.11
2018-01-08T04:24:53.528Z,992.22
2018-01-08T04:26:00.261Z,992.14
2018-01-08T04:27:07.075Z,992.18
2018-01-08T04:28:13.843Z,992.17
2018-01-08T04:29:20.608Z,992.11
2018-01-08T04:30:27.364Z,992.10
2018-01-08T04:31:34.124Z,992.22
2018-01-08T04:32:40.893Z,992.19
2018-01-08T04:33:47.663Z,992.17
2018-01-08T04:34:54.520Z,992.18
2018-01-08T04:36:01.272Z,992.09
2018-01-08T04:37:08.072Z,992.21
2018-01-08T04:38:14.911Z,992.16
2018-01-08T04:39:21.627Z,992.13
2018-01-08T04:40:28.396Z,992.15
2018-01-08T04:41:35.164Z,992.12
2018-01-08T04:42:41.995Z,992.10
2018-01-08T04:43:48.735Z,992.14
2018-01-08T04:44:55.487Z,992.11
2018-01-08T04:46:02.232Z,992.07
2018-01-08T04:47:09.032Z,992.05
2018-01-08T04:48:15.789Z,992.02
2018-01-08T04:49:22.546Z,992.13
2018-01-08T04:50:29.252Z,992.15
2018-01-08T04:51:36.043Z,992.11
2018-01-08T04:52:42.807Z,992.23
2018-01-08T04:53:49.556Z,992.15
2018-01-08T04:54:56.308Z,992.17
2018-01-08T04:56:03.088Z,992.17
2018-01-08T04:57:09.828Z,992.10
2018-01-08T04:58:16.634Z,992.10
2018-01-08T04:59:23.372Z,992.10
2018-01-08T05:00:30.260Z,992.01
2018-01-08T05:01:38.393Z,992.05
2018-01-08T05:02:44.165Z,992.02
2018-01-08T05:03:50.957Z,992.09
2018-01-08T05:04:57.720Z,991.84
2018-01-08T05:06:04.467Z,991.92
2018-01-08T05:07:11.229Z,991.93
2018-01-08T05:08:18.013Z,991.89
2018-01-08T05:09:24.792Z,991.86
2018-01-08T05:10:31.553Z,991.95
2018-01-08T05:11:38.355Z,991.88
2018-01-08T05:12:45.187Z,991.85
2018-01-08T05:13:52.008Z,991.89
2018-01-08T05:14:58.793Z,991.86
2018-01-08T05:16:05.592Z,992.00
2018-01-08T05:17:12.384Z,991.86
2018-01-08T05:18:19.153Z,991.89
2018-01-08T05:19:25.888Z,991.95
2018-01-08T05:20:32.653Z,991.91
2018-01-08T05:21:39.336Z,991.81
2018-01-08T05:22:46.033Z,991.95
2018-01-08T05:23:52.740Z,991.91
2018-01-08T05:24:59.464Z,991.89
2018-01-08T05:26:06.176Z,991.83
2018-01-08T05:27:12.963Z,991.87
2018-01-08T05:28:19.656Z,991.84
2018-01-08T05:29:26.388Z,991.84
2018-01-08T05:30:33.113Z,991.87
2018-01-08T05:31:39.837Z,991.83
2018-01-08T05:32:46.652Z,991.82
2018-01-08T05:33:53.370Z,991.84
2018-01-08T05:35:00.154Z,991.84
2018-01-08T05:36:06.875Z,991.84
2018-01-08T05:37:13.580Z,991.88
2018-01-08T05:38:20.327Z,991.78
2018-01-08T05:39:27.088Z,991.75
2018-01-08T05:40:33.832Z,991.76
2018-01-08T05:41:40.524Z,991.72
2018-01-08T05:42:47.260Z,991.77
2018-01-08T05:43:54.039Z,991.76
2018-01-08T05:45:00.775Z,991.80
2018-01-08T05:46:07.521Z,991.80
2018-01-08T05:47:14.203Z,991.76
2018-01-08T05:48:20.924Z,991.78
2018-01-08T05:49:27.707Z,991.82
2018-01-08T05:50:34.416Z,991.74
2018-01-08T05:51:41.175Z,991.80
2018-01-08T05:52:47.864Z,991.76
2018-01-08T05:53:54.589Z,991.80
2018-01-08T05:55:01.351Z,991.78
2018-01-08T05:56:08.076Z,991.80
2018-01-08T05:57:14.791Z,991.77
2018-01-08T05:58:21.485Z,991.81
2018-01-08T05:59:28.192Z,991.90
2018-01-08T06:00:34.900Z,991.93
2018-01-08T06:01:41.672Z,991.83
2018-01-08T06:02:48.358Z,991.83
2018-01-08T06:03:55.061Z,991.87
2018-01-08T06:05:01.780Z,991.89
2018-01-08T06:06:08.509Z,991.89
2018-01-08T06:07:15.218Z,991.89
2018-01-08T06:08:22.031Z,992.01
2018-01-08T06:09:28.860Z,991.88
2018-01-08T06:10:35.585Z,991.88
2018-01-08T06:11:42.299Z,991.88
2018-01-08T06:12:49.115Z,991.87
2018-01-08T06:13:55.816Z,991.88
2018-01-08T06:15:02.546Z,991.91
2018-01-08T06:16:09.260Z,991.81
2018-01-08T06:17:16.067Z,991.83
2018-01-08T06:18:22.837Z,991.78
2018-01-08T06:19:29.585Z,991.81
2018-01-08T06:20:36.276Z,991.83
2018-01-08T06:21:43.108Z,991.86
2018-01-08T06:22:49.891Z,991.89
2018-01-08T06:23:56.581Z,991.79
2018-01-08T06:25:03.295Z,991.78
2018-01-08T06:26:09.988Z,991.82
2018-01-08T06:27:16.724Z,991.81
2018-01-08T06:28:23.392Z,991.83
2018-01-08T06:29:30.116Z,991.72
2018-01-08T06:30:36.917Z,991.83
2018-01-08T06:31:43.594Z,991.69
2018-01-08T06:32:50.379Z,991.83
2018-01-08T06:33:57.047Z,991.79
2018-01-08T06:35:03.776Z,991.82
2018-01-08T06:36:10.473Z,991.85
2018-01-08T06:37:17.304Z,991.87
2018-01-08T06:38:24.104Z,991.89
2018-01-08T06:39:30.797Z,991.75
2018-01-08T06:40:37.523Z,991.86
2018-01-08T06:41:44.216Z,991.83
2018-01-08T06:42:51.024Z,991.84
2018-01-08T06:43:57.726Z,991.84
2018-01-08T06:45:04.452Z,991.84
2018-01-08T06:46:11.195Z,991.82
2018-01-08T06:47:17.912Z,991.86
2018-01-08T06:48:24.624Z,991.84
2018-01-08T06:49:31.471Z,991.91
2018-01-08T06:50:38.171Z,991.88
2018-01-08T06:51:44.888Z,991.80
2018-01-08T06:52:51.630Z,991.80
2018-01-08T06:53:58.468Z,991.94
2018-01-08T06:55:05.176Z,991.89
2018-01-08T06:56:11.882Z,991.90
2018-01-08T06:57:18.717Z,991.99
2018-01-08T06:58:25.455Z,991.85
2018-01-08T06:59:32.214Z,991.93
2018-01-08T07:00:38.908Z,991.87
2018-01-08T07:01:45.616Z,991.84
2018-01-08T07:02:52.353Z,991.98
2018-01-08T07:03:59.084Z,991.95
2018-01-08T07:05:05.804Z,991.93
2018-01-08T07:06:12.626Z,992.00
2018-01-08T07:07:19.336Z,992.02
2018-01-08T07:08:26.088Z,991.91
2018-01-08T07:09:32.767Z,991.90
2018-01-08T07:10:39.460Z,991.98
2018-01-08T07:11:46.161Z,991.94
2018-01-08T07:12:52.880Z,991.94
2018-01-08T07:13:59.704Z,992.03
2018-01-08T07:15:06.460Z,991.91
2018-01-08T07:16:13.160Z,992.00
2018-01-08T07:17:19.868Z,992.04
2018-01-08T07:18:26.574Z,991.97
2018-01-08T07:19:33.420Z,991.99
2018-01-08T07:20:40.173Z,992.01
2018-01-08T07:21:46.943Z,992.06
2018-01-08T07:22:53.692Z,992.04
2018-01-08T07:24:00.520Z,991.99
2018-01-08T07:25:07.321Z,991.99
2018-01-08T07:26:14.074Z,992.07
2018-01-08T07:27:20.899Z,991.98
2018-01-08T07:28:27.633Z,992.05
2018-01-08T07:29:34.423Z,992.11
2018-01-08T07:30:41.181Z,992.05
2018-01-08T07:31:47.904Z,992.04
2018-01-08T07:32:54.693Z,992.02
2018-01-08T07:34:01.450Z,992.03
2018-01-08T07:35:08.473Z,992.03
2018-01-08T07:36:15.252Z,992.00
2018-01-08T07:37:22.024Z,992.07
2018-01-08T07:38:28.745Z,992.08
2018-01-08T07:39:35.576Z,992.07
2018-01-08T07:40:42.340Z,991.96
2018-01-08T07:41:49.083Z,991.96
2018-01-08T07:42:55.841Z,991.98
2018-01-08T07:44:02.684Z,991.96
2018-01-08T07:45:09.448Z,991.85
2018-01-08T07:46:16.216Z,991.89
2018-01-08T07:47:22.935Z,991.81
2018-01-08T07:48:29.667Z,991.88
2018-01-08T07:49:36.457Z,991.91
2018-01-08T07:50:43.196Z,991.90
2018-01-08T07:51:49.964Z,991.86
2018-01-08T07:52:56.694Z,991.81
2018-01-08T07:54:03.668Z,991.84
2018-01-08T07:55:10.435Z,991.86
2018-01-08T07:56:17.216Z,991.91
2018-01-08T07:57:24.044Z,991.85
2018-01-08T07:58:30.804Z,991.91
2018-01-08T07:59:37.541Z,991.95
2018-01-08T08:00:44.289Z,992.02
2018-01-08T08:01:51.160Z,992.11
2018-01-08T08:02:57.912Z,992.16
2018-01-08T08:04:04.676Z,992.09
2018-01-08T08:05:11.404Z,992.17
2018-01-08T08:06:18.156Z,992.16
2018-01-08T08:07:24.915Z,992.08
2018-01-08T08:08:31.675Z,992.16
2018-01-08T08:09:38.424Z,992.12
2018-01-08T08:10:45.165Z,992.14
2018-01-08T08:11:51.924Z,992.04
2018-01-08T08:12:58.708Z,992.09
2018-01-08T08:14:05.456Z,992.01
2018-01-08T08:15:12.221Z,992.15
2018-01-08T08:16:19.016Z,992.15
2018-01-08T08:17:25.832Z,992.07
2018-01-08T08:18:32.649Z,992.07
2018-01-08T08:19:39.491Z,992.09
2018-01-08T08:20:46.265Z,992.04
2018-01-08T08:21:53.104Z,992.07
2018-01-08T08:22:59.850Z,992.07
2018-01-08T08:24:06.724Z,991.98
2018-01-08T08:25:13.497Z,992.18
2018-01-08T08:26:20.220Z,991.97
2018-01-08T08:27:27.019Z,991.95
2018-01-08T08:28:33.864Z,992.02
2018-01-08T08:29:40.608Z,991.99
2018-01-08T08:30:47.397Z,992.07
2018-01-08T08:31:54.262Z,992.06
2018-01-08T08:33:01.209Z,992.06
2018-01-08T08:34:08.044Z,992.15
2018-01-08T08:35:14.760Z,992.19
2018-01-08T08:36:21.856Z,992.11
2018-01-08T08:37:28.628Z,992.18
2018-01-08T08:38:35.456Z,992.22
2018-01-08T08:39:42.300Z,992.14
2018-01-08T08:40:49.033Z,992.12
2018-01-08T08:41:55.812Z,992.15
2018-01-08T08:43:02.692Z,992.10
2018-01-08T08:44:09.416Z,992.08
2018-01-08T08:45:16.183Z,992.07
2018-01-08T08:46:22.964Z,992.08
2018-01-08T08:47:29.716Z,992.10
2018-01-08T08:48:36.632Z,992.08
2018-01-08T08:49:43.380Z,992.08
2018-01-08T08:50:50.120Z,992.03
2018-01-08T08:51:56.961Z,992.02
2018-01-08T08:53:03.716Z,991.95
2018-01-08T08:54:10.509Z,991.98
2018-01-08T08:55:17.238Z,991.94
2018-01-08T08:56:24.040Z,992.02
2018-01-08T08:57:30.770Z,992.11
2018-01-08T08:58:37.519Z,992.03
2018-01-08T08:59:44.292Z,992.04
2018-01-08T09:00:51.133Z,992.05
2018-01-08T09:01:57.866Z,991.99
2018-01-08T09:03:04.648Z,991.93
2018-01-08T09:04:11.479Z,991.98
2018-01-08T09:05:18.239Z,992.09
2018-01-08T09:06:25.034Z,991.98
2018-01-08T09:07:31.839Z,992.05
2018-01-08T09:08:38.663Z,992.07
2018-01-08T09:09:45.403Z,992.11
2018-01-08T09:10:52.148Z,992.08
2018-01-08T09:11:58.916Z,992.06
2018-01-08T09:13:05.759Z,992.11
2018-01-08T09:14:12.509Z,992.07
2018-01-08T09:15:19.312Z,992.06
2018-01-08T09:16:26.044Z,992.11
2018-01-08T09:17:32.845Z,992.14
2018-01-08T09:18:39.604Z,992.15
2018-01-08T09:19:46.373Z,992.16
2018-01-08T09:20:53.215Z,992.13
2018-01-08T09:21:59.952Z,992.20
2018-01-08T09:23:06.695Z,992.18
2018-01-08T09:24:13.448Z,992.25
2018-01-08T09:25:20.204Z,992.26
2018-01-08T09:26:27.000Z,992.29
2018-01-08T09:27:33.823Z,992.25
2018-01-08T09:28:40.631Z,992.23
2018-01-08T09:29:47.391Z,992.25
2018-01-08T09:30:54.185Z,992.30
2018-01-08T09:32:00.926Z,992.27
2018-01-08T09:33:07.689Z,992.25
2018-01-08T09:34:14.499Z,992.21
2018-01-08T09:35:21.279Z,992.35
2018-01-08T09:36:28.052Z,992.29
2018-01-08T09:37:34.852Z,992.25
2018-01-08T09:38:41.600Z,992.32
2018-01-08T09:39:48.307Z,992.34
2018-01-08T09:40:55.036Z,992.32
2018-01-08T09:42:01.818Z,992.36
2018-01-08T09:43:08.561Z,992.37
2018-01-08T09:44:15.320Z,992.25
2018-01-08T09:45:22.045Z,992.31
2018-01-08T09:46:28.827Z,992.31
2018-01-08T09:47:35.603Z,992.35
2018-01-08T09:48:42.401Z,992.33
2018-01-08T09:49:49.157Z,992.31
2018-01-08T09:50:55.978Z,992.23
2018-01-08T09:52:02.709Z,992.33
2018-01-08T09:53:09.633Z,992.33
2018-01-08T09:54:16.392Z,992.29
2018-01-08T09:55:23.127Z,992.28
2018-01-08T09:56:29.950Z,992.21
2018-01-08T09:57:36.752Z,992.24
2018-01-08T09:58:43.484Z,992.14
2018-01-08T09:59:50.216Z,992.27
2018-01-08T10:00:57.034Z,992.21
2018-01-08T10:02:03.761Z,992.20
2018-01-08T10:03:10.839Z,992.21
2018-01-08T10:04:17.779Z,992.20
2018-01-08T10:05:24.848Z,992.15
2018-01-08T10:06:31.812Z,992.18
2018-01-08T10:07:38.556Z,992.18
2018-01-08T10:08:45.572Z,992.11
2018-01-08T10:09:52.663Z,992.11
2018-01-08T10:10:59.631Z,992.12
2018-01-08T10:12:06.650Z,992.24
2018-01-08T10:13:13.669Z,992.07
2018-01-08T10:14:20.692Z,992.11
2018-01-08T10:15:27.485Z,992.09
2018-01-08T10:16:34.296Z,992.09
2018-01-08T10:17:41.432Z,992.03
2018-01-08T10:18:48.250Z,992.03
2018-01-08T10:19:55.392Z,992.02
2018-01-08T10:21:02.272Z,992.08
2018-01-08T10:22:09.022Z,992.04
2018-01-08T10:23:15.792Z,991.99
2018-01-08T10:24:22.507Z,992.14
2018-01-08T10:25:29.296Z,992.05
2018-01-08T10:26:36.002Z,992.12
2018-01-08T10:27:42.744Z,992.18
2018-01-08T10:28:49.488Z,992.09
2018-01-08T10:29:56.216Z,992.08
2018-01-08T10:31:02.996Z,992.11
2018-01-08T10:32:09.741Z,992.03
2018-01-08T10:33:16.568Z,992.11
2018-01-08T10:34:23.401Z,992.08
2018-01-08T10:35:30.220Z,991.99
2018-01-08T10:36:37.004Z,992.03
2018-01-08T10:37:43.879Z,991.95
2018-01-08T10:38:50.659Z,991.98
2018-01-08T10:39:57.483Z,991.93
2018-01-08T10:41:04.166Z,991.91
2018-01-08T10:42:10.848Z,991.94
2018-01-08T10:43:17.744Z,991.93
2018-01-08T10:44:24.583Z,991.97
2018-01-08T10:45:31.563Z,991.89
2018-01-08T10:46:38.388Z,991.93
2018-01-08T10:47:45.507Z,991.86
2018-01-08T10:48:52.412Z,991.93
2018-01-08T10:49:59.348Z,991.82
2018-01-08T10:51:06.282Z,991.79
2018-01-08T10:52:13.129Z,991.83
2018-01-08T10:53:19.895Z,991.86
2018-01-08T10:54:26.739Z,991.77
2018-01-08T10:55:33.684Z,991.73
2018-01-08T10:56:40.520Z,991.74
2018-01-08T10:57:47.226Z,991.67
2018-01-08T10:58:53.932Z,991.73
2018-01-08T11:00:00.723Z,991.72
2018-01-08T11:01:07.652Z,991.64
2018-01-08T11:02:14.544Z,991.67
2018-01-08T11:03:26.452Z,991.59
2018-01-08T11:04:33.588Z,991.67
2018-01-08T11:05:40.296Z,991.65
2018-01-08T11:06:47.057Z,991.58
2018-01-08T11:07:53.813Z,991.61
2018-01-08T11:09:00.540Z,991.50
2018-01-08T11:10:07.688Z,991.57
2018-01-08T11:11:14.510Z,991.45
2018-01-08T11:12:21.244Z,991.45
2018-01-08T11:13:28.060Z,991.45
2018-01-08T11:14:34.816Z,991.41
2018-01-08T11:15:41.576Z,991.37
2018-01-08T11:16:48.304Z,991.42
2018-01-08T11:17:55.048Z,991.34
2018-01-08T11:19:01.928Z,991.39
2018-01-08T11:20:08.790Z,991.39
2018-01-08T11:21:15.661Z,991.36
2018-01-08T11:22:22.464Z,991.32
2018-01-08T11:23:29.259Z,991.39
2018-01-08T11:24:36.098Z,991.36
2018-01-08T11:25:42.860Z,991.37
2018-01-08T11:26:49.632Z,991.31
2018-01-08T11:27:56.397Z,991.28
2018-01-08T11:29:03.204Z,991.30
2018-01-08T11:30:09.974Z,991.29
2018-01-08T11:31:16.881Z,991.22
2018-01-08T11:32:23.809Z,991.23
2018-01-08T11:33:30.612Z,991.18
2018-01-08T11:34:37.547Z,991.12
2018-01-08T11:35:44.313Z,991.20
2018-01-08T11:36:51.288Z,991.16
2018-01-08T11:37:58.149Z,991.05
2018-01-08T11:39:04.955Z,991.12
2018-01-08T11:40:11.809Z,991.06
2018-01-08T11:41:18.680Z,991.15
2018-01-08T11:42:25.615Z,991.12
2018-01-08T11:43:32.489Z,991.17
2018-01-08T11:44:39.574Z,991.11
2018-01-08T11:45:46.097Z,991.13
2018-01-08T11:46:53.036Z,991.10
2018-01-08T11:48:00.047Z,991.10
2018-01-08T11:49:07.017Z,991.17
2018-01-08T11:50:13.896Z,991.22
2018-01-08T11:51:20.792Z,991.08
2018-01-08T11:52:27.624Z,991.12
2018-01-08T11:53:34.456Z,991.18
2018-01-08T11:54:41.257Z,991.12
2018-01-08T11:55:48.044Z,991.19
2018-01-08T11:56:54.822Z,991.09
2018-01-08T11:58:01.700Z,991.13
2018-01-08T11:59:08.561Z,991.10
2018-01-08T12:00:15.572Z,991.00
2018-01-08T12:01:22.460Z,991.12
2018-01-08T12:02:29.300Z,991.07
2018-01-08T12:03:36.204Z,991.11
2018-01-08T12:04:43.094Z,991.11
2018-01-08T12:05:50.212Z,990.91
2018-01-08T12:06:57.131Z,991.01
2018-01-08T12:08:04.016Z,990.94
2018-01-08T12:09:10.838Z,991.03
2018-01-08T12:10:17.660Z,990.97
2018-01-08T12:11:24.504Z,990.87
2018-01-08T12:12:31.632Z,990.90
2018-01-08T12:13:38.456Z,990.87
2018-01-08T12:14:45.437Z,990.92
2018-01-08T12:15:52.288Z,990.92
2018-01-08T12:16:59.216Z,990.86
2018-01-08T12:18:06.037Z,990.89
2018-01-08T12:19:12.953Z,990.97
2018-01-08T12:20:19.786Z,990.92
2018-01-08T12:21:26.508Z,990.78
2018-01-08T12:22:33.275Z,990.84
2018-01-08T12:23:40.149Z,990.81
2018-01-08T12:24:46.916Z,990.80
2018-01-08T12:25:53.812Z,990.86
2018-01-08T12:27:00.611Z,990.71
2018-01-08T12:28:07.340Z,990.75
2018-01-08T12:29:14.176Z,990.76
2018-01-08T12:30:21.084Z,990.79
2018-01-08T12:31:27.842Z,990.74
2018-01-08T12:32:34.652Z,990.79
2018-01-08T12:33:41.493Z,990.84
2018-01-08T12:34:48.277Z,990.78
2018-01-08T12:35:55.061Z,990.78
2018-01-08T12:37:01.928Z,990.81
2018-01-08T12:38:08.660Z,990.71
2018-01-08T12:39:15.412Z,990.76
2018-01-08T12:40:22.217Z,990.63
2018-01-08T12:41:29.039Z,990.60
2018-01-08T12:42:35.799Z,990.72
2018-01-08T12:43:42.558Z,990.62
2018-01-08T12:44:49.332Z,990.68
2018-01-08T12:45:56.153Z,990.64
2018-01-08T12:47:02.916Z,990.67
2018-01-08T12:48:09.801Z,990.65
2018-01-08T12:49:16.626Z,990.57
2018-01-08T12:50:23.392Z,990.50
2018-01-08T12:51:30.188Z,990.56
2018-01-08T12:52:36.982Z,990.58
2018-01-08T12:53:43.861Z,990.52
2018-01-08T12:54:50.660Z,990.64
2018-01-08T12:55:57.609Z,990.55
2018-01-08T12:57:04.548Z,990.54
2018-01-08T12:58:11.364Z,990.60
2018-01-08T12:59:18.189Z,990.45
2018-01-08T13:00:24.997Z,990.48
2018-01-08T13:01:31.843Z,990.51
2018-01-08T13:02:38.700Z,990.41
2018-01-08T13:03:45.638Z,990.46
2018-01-08T13:04:52.520Z,990.42
2018-01-08T13:05:59.433Z,990.47
2018-01-08T13:07:06.236Z,990.53
2018-01-08T13:08:13.232Z,990.52
2018-01-08T13:09:20.181Z,990.51
2018-01-08T13:10:27.034Z,990.52
2018-01-08T13:11:33.820Z,990.53
2018-01-08T13:12:40.577Z,990.49
2018-01-08T13:13:47.332Z,990.54
2018-01-08T13:14:54.136Z,990.44
2018-01-08T13:16:00.916Z,990.40
2018-01-08T13:17:07.631Z,990.43
2018-01-08T13:18:14.427Z,990.33
2018-01-08T13:19:21.246Z,990.30
2018-01-08T13:20:28.124Z,990.26
2018-01-08T13:21:34.997Z,990.28
2018-01-08T13:22:41.744Z,990.40
2018-01-08T13:23:48.495Z,990.36
2018-01-08T13:24:55.300Z,990.47
2018-01-08T13:26:02.151Z,990.37
2018-01-08T13:27:08.898Z,990.41
2018-01-08T13:28:15.665Z,990.46
2018-01-08T13:29:22.487Z,990.47
2018-01-08T13:30:29.232Z,990.59
2018-01-08T13:31:35.941Z,990.46
2018-01-08T13:32:42.696Z,990.54
2018-01-08T13:33:49.416Z,990.47
2018-01-08T13:34:56.197Z,990.39
2018-01-08T13:36:02.972Z,990.40
2018-01-08T13:37:09.767Z,990.31
2018-01-08T13:38:16.569Z,990.33
2018-01-08T13:39:23.408Z,990.22
2018-01-08T13:40:30.110Z,990.32
2018-01-08T13:41:36.963Z,990.14
2018-01-08T13:42:43.721Z,990.24
2018-01-08T13:43:50.528Z,990.28
2018-01-08T13:44:57.341Z,990.18
2018-01-08T13:46:04.141Z,990.23
2018-01-08T13:47:11.017Z,990.21
2018-01-08T13:48:17.885Z,990.21
2018-01-08T13:49:24.798Z,990.14
2018-01-08T13:50:31.643Z,990.10
2018-01-08T13:51:38.413Z,990.08
2018-01-08T13:52:45.304Z,990.19